createdAt,value
2023-04-16T00:00:43.779Z,39.6
2023-04-16T00:03:44.054Z,38.7
2023-04-16T00:06:43.811Z,37.4
2023-04-16T00:09:43.817Z,37.4
2023-04-16T00:12:43.836Z,36.6
2023-04-16T00:15:43.880Z,35
2023-04-16T00:18:43.888Z,35.4
2023-04-16T00:21:43.898Z,35.1
2023-04-16T00:24:43.904Z,35.7
2023-04-16T00:27:43.906Z,36
2023-04-16T00:30:43.939Z,35.3
2023-04-16T00:33:43.963Z,35.9
2023-04-16T00:36:43.988Z,35.4
2023-04-16T00:39:43.997Z,36
2023-04-16T00:42:44.022Z,36
2023-04-16T00:45:44.034Z,35.7
2023-04-16T00:48:44.050Z,36.3
2023-04-16T00:51:44.053Z,34.9
2023-04-16T00:54:44.079Z,35.9
2023-04-16T00:57:44.109Z,37
2023-04-16T01:00:44.128Z,37.1
2023-04-16T01:03:44.221Z,37.4
2023-04-16T01:06:44.142Z,38
2023-04-16T01:09:44.165Z,37.9
2023-04-16T01:12:44.175Z,37.8
2023-04-16T01:15:44.221Z,37.9
2023-04-16T01:18:44.224Z,37.6
2023-04-16T01:21:44.246Z,37
2023-04-16T01:24:44.280Z,38.1
2023-04-16T01:27:44.282Z,38.1
2023-04-16T01:30:44.303Z,38.3
2023-04-16T01:33:44.335Z,38.3
2023-04-16T01:36:44.349Z,37.3
2023-04-16T01:39:44.399Z,38.1
2023-04-16T01:42:44.402Z,38.6
2023-04-16T01:45:44.437Z,37.2
2023-04-16T01:48:44.456Z,37.9
2023-04-16T01:51:44.449Z,38
2023-04-16T01:54:44.480Z,37.5
2023-04-16T01:57:44.507Z,36.8
2023-04-16T02:00:44.586Z,36.8
2023-04-16T02:03:44.764Z,37.1
2023-04-16T02:06:44.572Z,36.6
2023-04-16T02:09:44.588Z,35.9
2023-04-16T02:12:44.592Z,35.9
2023-04-16T02:15:44.605Z,35.2
2023-04-16T02:18:44.640Z,34.7
2023-04-16T02:21:44.662Z,36.1
2023-04-16T02:24:44.666Z,36.5
2023-04-16T02:27:44.693Z,34.6
2023-04-16T02:30:44.711Z,35.6
2023-04-16T02:33:44.700Z,35.6
2023-04-16T02:36:44.727Z,36.6
2023-04-16T02:39:44.730Z,35.6
2023-04-16T02:42:44.757Z,36.1
2023-04-16T02:45:44.833Z,35.9
2023-04-16T02:48:44.789Z,35.4
2023-04-16T02:51:44.817Z,34.9
2023-04-16T02:54:44.828Z,34.9
2023-04-16T02:57:44.845Z,35.6
2023-04-16T03:00:44.855Z,35.8
2023-04-16T03:03:44.882Z,34.9
2023-04-16T03:06:44.895Z,35.3
2023-04-16T03:09:44.915Z,36.2
2023-04-16T03:12:44.924Z,37
2023-04-16T03:15:44.932Z,37.3
2023-04-16T03:18:44.946Z,37.8
2023-04-16T03:21:44.982Z,38.3
2023-04-16T03:24:44.983Z,38.5
2023-04-16T03:27:45.003Z,38.8
2023-04-16T03:30:45.012Z,38.9
2023-04-16T03:33:45.022Z,40.7
2023-04-16T03:36:45.066Z,39.6
2023-04-16T03:39:45.052Z,40.5
2023-04-16T03:42:45.058Z,40.7
2023-04-16T03:45:45.060Z,40.6
2023-04-16T03:48:45.068Z,40.7
2023-04-16T03:51:45.088Z,39.3
2023-04-16T03:54:45.080Z,39.7
2023-04-16T03:57:45.079Z,39.3
2023-04-16T04:00:45.094Z,39.1
2023-04-16T04:03:45.367Z,38.3
2023-04-16T04:06:45.090Z,38.7
2023-04-16T04:09:45.104Z,38.6
2023-04-16T04:12:45.115Z,38.3
2023-04-16T04:15:45.122Z,37.6
2023-04-16T04:18:45.123Z,38
2023-04-16T04:21:45.129Z,38.2
2023-04-16T04:24:45.131Z,38.3
2023-04-16T04:27:45.141Z,37.4
2023-04-16T04:30:45.161Z,38
2023-04-16T04:33:45.156Z,38.2
2023-04-16T04:36:45.150Z,38.6
2023-04-16T04:39:45.162Z,38.9
2023-04-16T04:42:45.151Z,38
2023-04-16T04:45:45.192Z,38.9
2023-04-16T04:48:45.159Z,38.6
2023-04-16T04:51:45.172Z,39.2
2023-04-16T04:54:45.173Z,38.8
2023-04-16T04:57:45.176Z,39.1
2023-04-16T05:00:45.198Z,38.9
2023-04-16T05:03:45.255Z,40.7
2023-04-16T05:06:45.188Z,41.6
2023-04-16T05:09:45.190Z,40.7
2023-04-16T05:12:46.283Z,41.6
2023-04-16T05:15:45.209Z,41.4
2023-04-16T05:18:45.222Z,41
2023-04-16T05:21:45.220Z,41
2023-04-16T05:24:45.231Z,41.6
2023-04-16T05:27:45.230Z,40.2
2023-04-16T05:30:45.253Z,41.6
2023-04-16T05:33:45.247Z,40.8
2023-04-16T05:36:45.244Z,40.8
2023-04-16T05:39:45.250Z,40.3
2023-04-16T05:42:45.256Z,40.2
2023-04-16T05:45:45.270Z,40.4
2023-04-16T05:48:45.268Z,39
2023-04-16T05:51:45.263Z,39.3
2023-04-16T05:54:45.287Z,39.6
2023-04-16T05:57:45.285Z,39.9
2023-04-16T06:00:45.271Z,39.1
2023-04-16T06:03:45.378Z,38.5
2023-04-16T06:06:45.282Z,39.4
2023-04-16T06:09:45.298Z,39.3
2023-04-16T06:12:45.309Z,40.1
2023-04-16T06:15:45.317Z,39.8
2023-04-16T06:18:45.302Z,40.2
2023-04-16T06:21:45.319Z,39.4
2023-04-16T06:24:45.307Z,39.5
2023-04-16T06:27:45.314Z,38.9
2023-04-16T06:30:45.336Z,37.7
2023-04-16T06:33:45.315Z,37.1
2023-04-16T06:36:45.339Z,37.4
2023-04-16T06:39:45.327Z,36.8
2023-04-16T06:42:45.702Z,36.9
2023-04-16T06:45:45.353Z,37.2
2023-04-16T06:48:45.355Z,36.1
2023-04-16T06:51:45.390Z,36.3
2023-04-16T06:54:45.358Z,34.9
2023-04-16T06:57:45.371Z,35.2
2023-04-16T07:00:45.375Z,34.2
2023-04-16T07:03:45.499Z,35.4
2023-04-16T07:06:45.389Z,34.5
2023-04-16T07:09:45.384Z,34.5
2023-04-16T07:12:45.383Z,34.7
2023-04-16T07:15:45.395Z,34.7
2023-04-16T07:18:45.403Z,34.9
2023-04-16T07:21:45.396Z,34.8
2023-04-16T07:24:45.411Z,35
2023-04-16T07:27:45.407Z,35.2
2023-04-16T07:30:45.418Z,35.5
2023-04-16T07:33:45.412Z,35.5
2023-04-16T07:36:45.406Z,34.2
2023-04-16T07:39:45.420Z,33.9
2023-04-16T07:42:45.448Z,34.7
2023-04-16T07:45:45.437Z,34.6
2023-04-16T07:48:45.433Z,34.9
2023-04-16T07:51:45.431Z,33.3
2023-04-16T07:54:45.436Z,34.4
2023-04-16T07:57:45.434Z,34.1
2023-04-16T08:00:45.444Z,34
2023-04-16T08:03:45.555Z,33.6
2023-04-16T08:06:45.467Z,34.1
2023-04-16T08:09:45.471Z,33.2
2023-04-16T08:12:45.480Z,32.8
2023-04-16T08:15:45.482Z,32.9
2023-04-16T08:18:45.485Z,32.2
2023-04-16T08:21:45.483Z,32.8
2023-04-16T08:24:45.499Z,32.2
2023-04-16T08:27:45.516Z,31.9
2023-04-16T08:30:45.498Z,31.3
2023-04-16T08:33:45.502Z,31.8
2023-04-16T08:36:45.528Z,31.3
2023-04-16T08:39:45.512Z,30.7
2023-04-16T08:42:45.518Z,30.2
2023-04-16T08:45:45.524Z,30.7
2023-04-16T08:48:45.544Z,29.5
2023-04-16T08:51:45.534Z,29.4
2023-04-16T08:54:45.540Z,29.1
2023-04-16T08:57:45.550Z,28
2023-04-16T09:00:45.559Z,28.1
2023-04-16T09:03:45.615Z,28
2023-04-16T09:06:45.564Z,28.8
2023-04-16T09:09:45.571Z,28.1
2023-04-16T09:12:45.571Z,27.9
2023-04-16T09:15:45.578Z,27.7
2023-04-16T09:18:45.578Z,27
2023-04-16T09:21:45.588Z,27.1
2023-04-16T09:24:45.580Z,27.1
2023-04-16T09:27:45.608Z,26.1
2023-04-16T09:30:45.623Z,26
2023-04-16T09:33:45.598Z,25.7
2023-04-16T09:36:45.606Z,25
2023-04-16T09:39:45.615Z,24.9
2023-04-16T09:42:45.620Z,25.4
2023-04-16T09:45:45.664Z,25.6
2023-04-16T09:48:45.634Z,25
2023-04-16T09:51:45.625Z,25.2
2023-04-16T09:54:45.645Z,24.8
2023-04-16T09:57:45.641Z,24.7
2023-04-16T10:00:45.650Z,23.5
2023-04-16T10:03:45.773Z,24.3
2023-04-16T10:06:45.644Z,25.2
2023-04-16T10:09:45.659Z,24.3
2023-04-16T10:12:45.668Z,24.5
2023-04-16T10:15:45.667Z,23.9
2023-04-16T10:18:45.673Z,23.8
2023-04-16T10:21:45.672Z,22.9
2023-04-16T10:24:45.671Z,22.3
2023-04-16T10:27:45.668Z,22.8
2023-04-16T10:30:45.686Z,23.2
2023-04-16T10:33:45.683Z,21.9
2023-04-16T10:36:45.677Z,22.8
2023-04-16T10:39:45.681Z,22.1
2023-04-16T10:42:45.688Z,21.8
2023-04-16T10:45:45.701Z,20.9
2023-04-16T10:48:50.041Z,21.5
2023-04-16T10:51:45.697Z,21.2
2023-04-16T10:54:45.695Z,21.6
2023-04-16T10:57:45.709Z,21.3
2023-04-16T11:00:45.707Z,20.5
2023-04-16T11:03:45.773Z,20.8
2023-04-16T11:06:45.709Z,20.7
2023-04-16T11:09:45.725Z,20
2023-04-16T11:12:45.720Z,20.9
2023-04-16T11:15:45.743Z,19.9
2023-04-16T11:18:51.675Z,20
2023-04-16T11:21:45.737Z,19.9
2023-04-16T11:24:45.745Z,19.9
2023-04-16T11:27:45.745Z,19.8
2023-04-16T11:30:45.749Z,18.8
2023-04-16T11:33:45.753Z,19.4
2023-04-16T11:36:45.762Z,19
2023-04-16T11:39:45.758Z,18.3
2023-04-16T11:42:45.776Z,18.9
2023-04-16T11:45:45.766Z,18.3
2023-04-16T11:48:45.773Z,18.5
2023-04-16T11:51:45.780Z,17.8
2023-04-16T11:54:45.792Z,17.3
2023-04-16T11:57:45.802Z,18
2023-04-16T12:00:45.790Z,17.3
2023-04-16T12:03:46.026Z,16.9
2023-04-16T12:06:45.802Z,17.5
2023-04-16T12:09:45.809Z,16.6
2023-04-16T12:12:45.814Z,16.2
2023-04-16T12:15:45.813Z,16.3
2023-04-16T12:18:45.819Z,16.7
2023-04-16T12:21:45.824Z,16.2
2023-04-16T12:24:45.835Z,16.2
2023-04-16T12:27:45.838Z,15.5
2023-04-16T12:30:45.848Z,15
2023-04-16T12:33:45.845Z,15.1
2023-04-16T12:36:45.888Z,14.9
2023-04-16T12:39:47.579Z,14
2023-04-16T12:42:45.849Z,12.5
2023-04-16T12:45:45.873Z,11
2023-04-16T12:48:45.861Z,11.5
2023-04-16T12:51:45.872Z,11.7
2023-04-16T12:54:45.871Z,11.2
2023-04-16T12:57:45.882Z,10.7
2023-04-16T13:00:45.890Z,10.3
2023-04-16T13:03:46.150Z,10.1
2023-04-16T13:06:45.886Z,9.4
2023-04-16T13:09:45.897Z,9.7
2023-04-16T13:12:45.897Z,9.4
2023-04-16T13:15:45.961Z,9.5
2023-04-16T13:18:45.912Z,8.2
2023-04-16T13:21:45.920Z,8.6
2023-04-16T13:24:45.932Z,8.2
2023-04-16T13:27:45.931Z,9.1
2023-04-16T13:30:45.929Z,9.2
2023-04-16T13:33:45.948Z,9.1
2023-04-16T13:36:45.950Z,9.3
2023-04-16T13:39:45.966Z,10.5
2023-04-16T13:42:45.953Z,11
2023-04-16T13:45:45.960Z,11.2
2023-04-16T13:48:45.964Z,12.3
2023-04-16T13:51:45.972Z,12.7
2023-04-16T13:54:45.969Z,12.6
2023-04-16T13:57:45.982Z,12.2
2023-04-16T14:00:45.993Z,12.1
2023-04-16T14:03:46.109Z,12.7
2023-04-16T14:06:45.989Z,13.5
2023-04-16T14:09:45.989Z,17.1
2023-04-16T14:12:46.000Z,14.6
2023-04-16T14:15:45.994Z,18.1
2023-04-16T14:18:46.004Z,13.8
2023-04-16T14:21:46.022Z,16.8
2023-04-16T14:24:46.089Z,14.4
2023-04-16T14:27:46.105Z,12.5
2023-04-16T14:30:46.097Z,12.6
2023-04-16T14:33:46.100Z,12.6
2023-04-16T14:36:46.098Z,12.9
2023-04-16T14:39:46.155Z,12
2023-04-16T14:42:46.105Z,11.1
2023-04-16T14:45:46.132Z,10.6
2023-04-16T14:48:46.103Z,11
2023-04-16T14:51:46.114Z,11.2
2023-04-16T14:54:46.110Z,10.9
2023-04-16T14:57:46.112Z,10.9
2023-04-16T15:00:46.109Z,11.8
2023-04-16T15:03:46.157Z,12.1
2023-04-16T15:06:46.571Z,11.5
2023-04-16T15:09:46.124Z,12.2
2023-04-16T15:12:46.111Z,11.5
2023-04-16T15:15:46.120Z,11.4
2023-04-16T15:18:46.130Z,11.5
2023-04-16T15:21:47.529Z,11.4
2023-04-16T15:24:46.147Z,11.8
2023-04-16T15:27:46.129Z,11.7
2023-04-16T15:30:46.129Z,12.2
2023-04-16T15:33:46.127Z,11.9
2023-04-16T15:36:46.125Z,11.6
2023-04-16T15:39:46.127Z,11.6
2023-04-16T15:42:46.126Z,11.5
2023-04-16T15:45:46.138Z,11.5
2023-04-16T15:48:46.132Z,11.5
2023-04-16T15:51:46.135Z,11.1
2023-04-16T15:54:46.133Z,11.4
2023-04-16T15:57:46.138Z,11.4
2023-04-16T16:00:46.139Z,11.6
2023-04-16T16:03:46.250Z,10.9
2023-04-16T16:06:46.141Z,9.7
2023-04-16T16:09:46.145Z,10.3
2023-04-16T16:12:46.152Z,11
2023-04-16T16:15:46.173Z,10.7
2023-04-16T16:18:46.161Z,11.4
2023-04-16T16:21:46.154Z,12.2
2023-04-16T16:24:46.154Z,12.8
2023-04-16T16:27:46.157Z,14.7
2023-04-16T16:30:46.159Z,13.4
2023-04-16T16:33:46.187Z,13.1
2023-04-16T16:36:46.167Z,13.1
2023-04-16T16:39:46.162Z,13.1
2023-04-16T16:42:46.203Z,13.5
2023-04-16T16:45:46.165Z,13.4
2023-04-16T16:48:46.170Z,14
2023-04-16T16:51:46.170Z,13.7
2023-04-16T16:54:46.170Z,14.2
2023-04-16T16:57:46.165Z,14.6
2023-04-16T17:00:46.243Z,14.3
2023-04-16T17:03:46.276Z,15
2023-04-16T17:06:46.205Z,14.9
2023-04-16T17:09:46.180Z,14.8
2023-04-16T17:12:46.190Z,15.6
2023-04-16T17:15:46.197Z,15
2023-04-16T17:18:46.198Z,14.8
2023-04-16T17:21:46.202Z,13.7
2023-04-16T17:24:46.200Z,13.9
2023-04-16T17:27:46.196Z,13.8
2023-04-16T17:30:46.211Z,13.6
2023-04-16T17:33:46.209Z,13.5
2023-04-16T17:36:46.202Z,13.8
2023-04-16T17:39:46.205Z,14
2023-04-16T17:42:46.207Z,13.4
2023-04-16T17:45:46.220Z,13.2
2023-04-16T17:48:46.203Z,13.3
2023-04-16T17:51:46.205Z,13.7
2023-04-16T17:54:46.208Z,14
2023-04-16T17:57:46.246Z,14.2
2023-04-16T18:00:46.206Z,14.1
2023-04-16T18:03:46.364Z,13.6
2023-04-16T18:06:46.209Z,14.2
2023-04-16T18:09:46.206Z,13.9
2023-04-16T18:12:46.215Z,13.2
2023-04-16T18:15:46.295Z,13.6
2023-04-16T18:18:46.405Z,13.4
2023-04-16T18:21:46.370Z,13.1
2023-04-16T18:24:46.463Z,13.1
2023-04-16T18:27:46.224Z,13.4
2023-04-16T18:30:46.221Z,13.1
2023-04-16T18:33:56.053Z,12.7
2023-04-16T18:36:46.234Z,12.8
2023-04-16T18:39:46.219Z,13.4
2023-04-16T18:42:46.224Z,13.3
2023-04-16T18:45:46.225Z,13.1
2023-04-16T18:48:46.222Z,12.8
2023-04-16T18:51:46.224Z,12.9
2023-04-16T18:54:46.220Z,12.9
2023-04-16T18:57:46.222Z,13.1
2023-04-16T19:00:46.272Z,13
2023-04-16T19:03:46.317Z,13.5
2023-04-16T19:06:46.234Z,13.3
2023-04-16T19:09:46.226Z,13.1
2023-04-16T19:12:46.242Z,13.4
2023-04-16T19:15:46.236Z,13.3
2023-04-16T19:18:46.238Z,12.8
2023-04-16T19:21:46.241Z,12.1
2023-04-16T19:24:46.239Z,12.5
2023-04-16T19:27:46.238Z,12.3
2023-04-16T19:30:46.250Z,12.6
2023-04-16T19:33:46.241Z,12.6
2023-04-16T19:36:46.244Z,12.6
2023-04-16T19:39:46.246Z,12.6
2023-04-16T19:42:46.247Z,12.5
2023-04-16T19:45:46.317Z,12.6
2023-04-16T19:48:46.249Z,12.3
2023-04-16T19:51:46.252Z,12.7
2023-04-16T19:54:46.254Z,12.7
2023-04-16T19:57:46.253Z,12.8
2023-04-16T20:00:46.257Z,13.1
2023-04-16T20:03:46.276Z,12.3
2023-04-16T20:06:46.266Z,12.6
2023-04-16T20:09:46.266Z,12.7
2023-04-16T20:12:46.275Z,13
2023-04-16T20:15:46.268Z,13.3
2023-04-16T20:18:46.292Z,13.5
2023-04-16T20:21:46.275Z,13.2
2023-04-16T20:24:47.566Z,13.3
2023-04-16T20:27:46.300Z,13.2
2023-04-16T20:30:46.293Z,14
2023-04-16T20:33:46.280Z,13.5
2023-04-16T20:36:46.282Z,13.6
2023-04-16T20:39:46.292Z,13.7
2023-04-16T20:42:46.516Z,14.3
2023-04-16T20:45:46.292Z,13.3
2023-04-16T20:48:46.310Z,13.9
2023-04-16T20:51:46.298Z,14.7
2023-04-16T20:54:46.307Z,14
2023-04-16T20:57:46.300Z,14
2023-04-16T21:00:46.319Z,14.4
2023-04-16T21:03:46.459Z,13.8
2023-04-16T21:06:46.324Z,14.3
2023-04-16T21:09:46.373Z,13.8
2023-04-16T21:12:46.326Z,14.5
2023-04-16T21:15:46.367Z,13.7
2023-04-16T21:18:46.332Z,14.8
2023-04-16T21:21:46.321Z,14.5
2023-04-16T21:24:46.337Z,15.1
2023-04-16T21:27:46.344Z,15.2
2023-04-16T21:30:46.341Z,15.3
2023-04-16T21:33:46.347Z,15.1
2023-04-16T21:36:46.347Z,15.4
2023-04-16T21:39:46.376Z,15.6
2023-04-16T21:42:46.360Z,15.6
2023-04-16T21:45:46.367Z,15.2
2023-04-16T21:48:46.352Z,15.5
2023-04-16T21:51:46.362Z,15.5
2023-04-16T21:54:46.370Z,15.8
2023-04-16T21:57:46.374Z,15.1
2023-04-16T22:00:46.384Z,15.5
2023-04-16T22:03:46.518Z,15.6
2023-04-16T22:06:46.392Z,15.1
2023-04-16T22:09:46.398Z,15.2
2023-04-16T22:12:46.402Z,15.3
2023-04-16T22:15:46.396Z,15.3
2023-04-16T22:18:46.397Z,14.5
2023-04-16T22:21:46.400Z,15.2
2023-04-16T22:24:46.404Z,15.4
2023-04-16T22:27:46.424Z,15
2023-04-16T22:30:46.424Z,15.3
2023-04-16T22:33:46.426Z,15.1
2023-04-16T22:36:46.420Z,15.3
2023-04-16T22:39:46.443Z,15.2
2023-04-16T22:42:46.428Z,15.1
2023-04-16T22:45:46.560Z,15.1
2023-04-16T22:48:46.429Z,15.2
2023-04-16T22:51:46.447Z,15.2
2023-04-16T22:54:46.445Z,15.2
2023-04-16T22:57:46.459Z,15.6
2023-04-16T23:00:46.450Z,15.7
2023-04-16T23:03:46.555Z,15.1
2023-04-16T23:06:46.477Z,16.5
2023-04-16T23:09:46.482Z,16.5
2023-04-16T23:12:46.474Z,16.8
2023-04-16T23:15:46.541Z,16.8
2023-04-16T23:18:46.484Z,17.3
2023-04-16T23:21:46.482Z,17.4
2023-04-16T23:24:46.489Z,17.2
2023-04-16T23:27:46.498Z,17.8
2023-04-16T23:30:46.491Z,17.9
2023-04-16T23:33:46.567Z,17.9
2023-04-16T23:36:46.511Z,18.1
2023-04-16T23:39:46.505Z,18.3
2023-04-16T23:42:46.519Z,17.9
2023-04-16T23:45:46.559Z,18.5
2023-04-16T23:48:46.527Z,18.9
2023-04-16T23:51:46.539Z,18.6
2023-04-16T23:54:46.538Z,18.4
2023-04-16T23:57:46.543Z,18.2
